Time;durP1;ratioP1;P1;durP2;ratioP2;P2;SDS_P1;SDS_P2;PMS_P1;PMS_P2;Temp;Humidity;BMP_temperature;BMP_pressure;BME280_temperature;BME280_humidity;BME280_pressure;Samples;Min_cycle;Max_cycle;Signal;HPM_P1;HPM_P2
2023/03/28 00:00:43;;;;;;;1.00;0.43;;;6.20;58.60;;;;;;5008192;28;20030;-78
2023/03/28 00:03:13;;;;;;;0.70;0.35;;;6.20;58.00;;;;;;5008032;28;20029;-78
2023/03/28 00:05:43;;;;;;;0.88;0.32;;;6.20;58.90;;;;;;5002488;28;20029;-78
2023/03/28 00:08:10;;;;;;;0.73;0.35;;;6.10;59.90;;;;;;5007097;28;20034;-78
2023/03/28 00:10:36;;;;;;;2.30;0.30;;;6.00;60.90;;;;;;5004723;28;20124;-78
2023/03/28 00:13:02;;;;;;;1.77;0.47;;;5.90;61.60;;;;;;5006753;28;20121;-78
2023/03/28 00:15:28;;;;;;;1.48;0.38;;;5.60;59.50;;;;;;5002666;28;20064;-78
2023/03/28 00:17:53;;;;;;;1.27;0.68;;;5.60;60.40;;;;;;5008370;28;20030;-78
2023/03/28 00:20:19;;;;;;;1.25;0.52;;;5.60;59.70;;;;;;5007337;28;20030;-79
2023/03/28 00:22:45;;;;;;;2.85;0.50;;;5.70;60.30;;;;;;5007135;28;20044;-78
2023/03/28 00:25:10;;;;;;;2.67;0.60;;;6.00;59.00;;;;;;5003900;28;20026;-78
2023/03/28 00:27:36;;;;;;;0.73;0.32;;;6.00;59.10;;;;;;5007229;28;20530;-78
2023/03/28 00:30:04;;;;;;;0.65;0.30;;;5.90;59.80;;;;;;5001581;28;20031;-78
2023/03/28 00:32:30;;;;;;;1.90;0.70;;;5.70;63.30;;;;;;5006048;28;20040;-78
2023/03/28 00:34:55;;;;;;;1.40;0.65;;;5.50;61.70;;;;;;5005094;28;20101;-78
2023/03/28 00:37:22;;;;;;;1.15;0.55;;;5.60;61.30;;;;;;5005677;28;20106;-78
2023/03/28 00:39:50;;;;;;;1.63;0.45;;;5.80;58.90;;;;;;5004502;28;20061;-78
2023/03/28 00:42:18;;;;;;;1.02;0.30;;;5.60;62.50;;;;;;5006368;28;20022;-78
2023/03/28 00:44:52;;;;;;;2.55;0.55;;;5.40;61.30;;;;;;5007798;28;20121;-78
2023/03/28 00:47:29;;;;;;;0.82;0.35;;;5.40;62.10;;;;;;5006890;28;20034;-78
2023/03/28 00:50:26;;;;;;;0.93;0.40;;;5.10;62.40;;;;;;5004232;28;20467;-78
2023/03/28 00:53:04;;;;;;;0.75;0.40;;;4.60;62.70;;;;;;5002930;28;20124;-78
2023/03/28 00:55:50;;;;;;;0.68;0.40;;;4.70;61.60;;;;;;5005702;28;20026;-78
2023/03/28 00:58:23;;;;;;;0.60;0.30;;;5.00;61.50;;;;;;5006505;28;20041;-78
2023/03/28 01:00:49;;;;;;;0.40;0.25;;;4.80;61.80;;;;;;5014943;28;20391;-79
2023/03/28 01:03:18;;;;;;;0.85;0.35;;;4.40;63.10;;;;;;5009398;28;20030;-78
2023/03/28 01:05:46;;;;;;;0.57;0.25;;;4.00;64.20;;;;;;5006793;28;20053;-78
2023/03/28 01:08:12;;;;;;;2.40;0.30;;;4.10;63.40;;;;;;5009922;28;20033;-78
2023/03/28 01:10:38;;;;;;;1.52;0.40;;;4.20;63.00;;;;;;5012089;28;20439;-79
2023/03/28 01:13:04;;;;;;;0.80;0.30;;;4.30;63.10;;;;;;5007256;28;20038;-78
2023/03/28 01:15:30;;;;;;;1.17;0.35;;;4.30;62.90;;;;;;5010479;28;20072;-78
2023/03/28 01:18:01;;;;;;;1.02;0.25;;;4.20;63.40;;;;;;5011451;28;20038;-78
2023/03/28 01:20:50;;;;;;;1.02;0.60;;;4.70;61.80;;;;;;5006830;28;20488;-78
2023/03/28 01:23:31;;;;;;;0.88;0.22;;;4.50;62.80;;;;;;5008834;28;20022;-78
2023/03/28 01:26:37;;;;;;;1.63;0.60;;;4.80;61.50;;;;;;5010882;28;20046;-78
2023/03/28 01:29:27;;;;;;;1.77;0.57;;;5.20;61.00;;;;;;5009236;28;20389;-78
2023/03/28 01:32:17;;;;;;;0.50;0.30;;;5.20;60.90;;;;;;5008685;28;20547;-78
2023/03/28 01:34:49;;;;;;;1.48;0.55;;;5.10;61.30;;;;;;5008007;28;20045;-78
2023/03/28 01:37:36;;;;;;;1.20;0.50;;;4.90;63.40;;;;;;5011437;28;20029;-78
2023/03/28 01:40:21;;;;;;;1.20;0.35;;;4.90;62.30;;;;;;5004667;28;20041;-78
2023/03/28 01:42:56;;;;;;;2.70;0.95;;;5.40;60.80;;;;;;5009119;28;20040;-79
2023/03/28 01:45:47;;;;;;;0.20;0.17;;;5.20;61.50;;;;;;5011377;28;20049;-78
2023/03/28 01:48:35;;;;;;;1.67;0.50;;;5.20;61.70;;;;;;5007872;28;20057;-78
2023/03/28 01:51:45;;;;;;;1.15;0.30;;;4.70;63.20;;;;;;5006328;28;20476;-78
2023/03/28 01:54:16;;;;;;;2.03;0.40;;;4.70;63.10;;;;;;4949643;28;20414;-78
2023/03/28 01:56:55;;;;;;;2.05;1.05;;;5.00;62.70;;;;;;4995064;28;20046;-78
2023/03/28 01:59:31;;;;;;;0.80;0.60;;;5.10;61.90;;;;;;5008088;28;20083;-78
2023/03/28 02:02:27;;;;;;;1.00;0.40;;;5.10;64.00;;;;;;5006502;28;20033;-78
2023/03/28 02:04:55;;;;;;;;;;;5.00;62.50;;;;;;5000423;28;20033;-78
2023/03/28 02:07:23;;;;;;;0.60;0.20;;;5.20;63.20;;;;;;5007121;28;19922;-78
2023/03/28 02:09:53;;;;;;;1.75;0.70;;;5.20;62.40;;;;;;5009041;28;20069;-76
2023/03/28 02:12:25;;;;;;;0.55;0.20;;;5.40;61.30;;;;;;5008731;28;20458;-77
2023/03/28 02:14:55;;;;;;;0.65;0.30;;;5.20;62.80;;;;;;5009045;28;20037;-77
2023/03/28 02:17:23;;;;;;;2.53;0.55;;;4.90;64.30;;;;;;5006494;28;20076;-77
2023/03/28 02:19:54;;;;;;;1.08;0.40;;;5.00;62.10;;;;;;5006658;28;20479;-77
2023/03/28 02:22:46;;;;;;;0.88;0.30;;;5.10;62.00;;;;;;5008429;28;20476;-77
2023/03/28 02:25:12;;;;;;;2.47;0.57;;;4.70;63.90;;;;;;4998183;28;20456;-76
2023/03/28 02:27:39;;;;;;;0.68;0.20;;;4.50;64.30;;;;;;5006073;28;20037;-77
2023/03/28 02:30:07;;;;;;;1.38;0.35;;;4.30;64.90;;;;;;5006815;28;20049;-77
2023/03/28 02:32:32;;;;;;;1.23;0.20;;;4.40;64.40;;;;;;5002357;28;20030;-76
2023/03/28 02:35:00;;;;;;;0.95;0.28;;;4.30;65.00;;;;;;5008368;28;20084;-76
2023/03/28 02:37:46;;;;;;;1.10;0.20;;;4.30;64.50;;;;;;5009278;28;20042;-77
2023/03/28 02:40:41;;;;;;;0.80;0.45;;;4.10;65.20;;;;;;5006943;28;20061;-77
2023/03/28 02:43:22;;;;;;;;;;;4.60;63.70;;;;;;5007200;28;20087;-77
2023/03/28 02:45:47;;;;;;;0.73;0.30;;;4.50;65.30;;;;;;5007133;28;20367;-76
2023/03/28 02:48:34;;;;;;;2.13;0.40;;;4.20;64.80;;;;;;5006544;28;20041;-77
2023/03/28 02:51:22;;;;;;;1.05;0.13;;;4.00;65.00;;;;;;5007847;28;20030;-78
2023/03/28 02:54:16;;;;;;;1.05;0.47;;;3.90;65.70;;;;;;5006784;28;20447;-76
2023/03/28 02:57:01;;;;;;;1.05;0.40;;;4.00;65.00;;;;;;5002038;28;20029;-76
2023/03/28 02:59:30;;;;;;;1.27;0.40;;;4.50;64.30;;;;;;5005029;28;20372;-76
2023/03/28 03:01:56;;;;;;;0.63;0.30;;;4.30;64.80;;;;;;5004633;28;20108;-77
2023/03/28 03:04:22;;;;;;;0.30;0.30;;;3.80;66.00;;;;;;5003369;28;20565;-77
2023/03/28 03:06:47;;;;;;;1.88;0.52;;;3.90;65.70;;;;;;5003537;28;20034;-78
2023/03/28 03:09:15;;;;;;;1.10;0.50;;;4.10;65.30;;;;;;4960042;28;1174271;-77
2023/03/28 03:11:41;;;;;;;0.60;0.28;;;3.90;66.10;;;;;;5004533;28;20068;-77
2023/03/28 03:14:06;;;;;;;0.75;0.43;;;3.90;65.60;;;;;;5002578;28;20053;-77
2023/03/28 03:16:33;;;;;;;1.15;0.40;;;3.50;66.60;;;;;;5001968;28;20041;-76
2023/03/28 03:18:59;;;;;;;2.22;0.40;;;4.10;65.30;;;;;;5001541;28;20438;-78
2023/03/28 03:21:25;;;;;;;0.50;0.30;;;4.20;65.70;;;;;;4999883;28;20596;-77
2023/03/28 03:23:51;;;;;;;0.60;0.38;;;3.40;66.80;;;;;;5001916;28;20069;-77
2023/03/28 03:26:17;;;;;;;1.63;0.70;;;3.40;67.50;;;;;;5001714;28;20066;-78
2023/03/28 03:28:43;;;;;;;1.15;0.38;;;3.60;66.60;;;;;;4998752;28;20069;-77
2023/03/28 03:31:09;;;;;;;0.77;0.40;;;3.70;66.60;;;;;;5003890;28;20076;-77
2023/03/28 03:33:36;;;;;;;1.58;0.30;;;3.70;66.10;;;;;;5002532;28;20117;-77
2023/03/28 03:36:03;;;;;;;2.28;0.70;;;3.70;66.50;;;;;;5001265;28;20495;-76
2023/03/28 03:38:29;;;;;;;1.48;0.85;;;3.30;67.40;;;;;;4999522;28;20026;-77
2023/03/28 03:40:55;;;;;;;1.63;0.30;;;3.00;68.70;;;;;;5003092;28;20079;-77
2023/03/28 03:43:21;;;;;;;3.08;0.80;;;2.80;69.40;;;;;;5001724;28;20396;-77
2023/03/28 03:45:46;;;;;;;1.45;0.30;;;2.90;68.90;;;;;;4999136;28;20025;-77
2023/03/28 03:48:12;;;;;;;0.88;0.32;;;3.10;68.00;;;;;;4996325;28;20045;-77
2023/03/28 03:50:39;;;;;;;1.55;0.52;;;2.90;68.70;;;;;;4996385;28;20030;-77
2023/03/28 03:53:05;;;;;;;2.15;0.60;;;2.70;69.70;;;;;;4995144;28;20034;-77
2023/03/28 03:55:31;;;;;;;1.02;0.57;;;2.80;69.10;;;;;;4999252;28;20480;-77
2023/03/28 03:57:57;;;;;;;1.35;0.35;;;3.00;68.20;;;;;;4997429;28;20044;-77
2023/03/28 04:00:22;;;;;;;0.52;0.32;;;3.10;68.10;;;;;;4995271;28;20434;-77
2023/03/28 04:02:48;;;;;;;2.17;0.68;;;3.20;67.40;;;;;;4998110;28;20026;-76
2023/03/28 04:05:14;;;;;;;0.52;0.20;;;3.50;67.00;;;;;;5001773;28;20480;-78
2023/03/28 04:07:40;;;;;;;0.47;0.13;;;3.20;67.90;;;;;;4996144;28;20057;-78
2023/03/28 04:10:06;;;;;;;0.52;0.30;;;3.40;67.50;;;;;;4998150;28;20050;-77
2023/03/28 04:12:31;;;;;;;0.85;0.35;;;3.20;67.50;;;;;;4999431;28;20038;-79
2023/03/28 04:14:57;;;;;;;1.10;0.22;;;3.70;66.00;;;;;;5000007;28;20574;-78
2023/03/28 04:17:27;;;;;;;0.60;0.35;;;3.70;66.40;;;;;;5000597;28;20049;-78
2023/03/28 04:19:54;;;;;;;0.60;0.20;;;3.80;65.50;;;;;;5001586;28;20631;-78
2023/03/28 04:22:20;;;;;;;0.52;0.30;;;3.70;67.20;;;;;;4998510;28;20025;-78
2023/03/28 04:24:48;;;;;;;1.27;0.40;;;3.50;67.40;;;;;;5000481;28;20523;-78
2023/03/28 04:27:14;;;;;;;1.42;0.47;;;3.60;66.60;;;;;;4999025;28;20512;-78
2023/03/28 04:29:40;;;;;;;1.30;0.40;;;3.60;67.00;;;;;;4998261;28;20096;-78
2023/03/28 04:32:06;;;;;;;0.75;0.30;;;3.80;65.90;;;;;;4997048;28;20480;-79
2023/03/28 04:34:32;;;;;;;1.58;0.50;;;4.20;65.90;;;;;;5001598;28;20034;-78
2023/03/28 04:37:00;;;;;;;3.03;0.40;;;4.40;65.30;;;;;;5005220;28;20038;-78
2023/03/28 04:39:34;;;;;;;1.00;0.30;;;4.40;65.80;;;;;;5005431;28;20029;-78
2023/03/28 04:42:03;;;;;;;2.55;0.68;;;4.40;65.70;;;;;;5003100;28;20052;-78
2023/03/28 04:44:29;;;;;;;1.40;0.47;;;4.70;66.00;;;;;;5004030;28;20080;-78
2023/03/28 04:46:57;;;;;;;1.02;0.40;;;4.60;65.60;;;;;;4999326;28;20095;-77
2023/03/28 04:49:23;;;;;;;1.23;0.40;;;4.60;65.30;;;;;;5001110;28;20036;-78
2023/03/28 04:51:51;;;;;;;2.20;0.20;;;4.70;65.40;;;;;;5005394;28;20029;-79
2023/03/28 04:54:17;;;;;;;1.70;0.43;;;4.80;65.00;;;;;;5005237;28;20030;-78
2023/03/28 04:56:49;;;;;;;2.10;0.30;;;4.80;65.60;;;;;;5005068;28;20030;-78
2023/03/28 04:59:16;;;;;;;2.42;0.30;;;4.50;65.60;;;;;;5000003;28;20025;-78
2023/03/28 05:01:47;;;;;;;0.75;0.30;;;4.40;66.00;;;;;;5005269;28;20071;-78
2023/03/28 05:04:17;;;;;;;0.95;0.30;;;4.40;66.10;;;;;;5004950;28;20128;-79
2023/03/28 05:06:44;;;;;;;2.00;0.55;;;4.30;66.00;;;;;;5004472;28;20046;-77
2023/03/28 05:09:11;;;;;;;2.55;0.30;;;4.20;66.50;;;;;;5003311;28;20077;-78
2023/03/28 05:11:38;;;;;;;2.65;0.50;;;4.40;66.50;;;;;;5000850;28;20038;-77
2023/03/28 05:14:03;;;;;;;2.65;0.52;;;4.60;66.20;;;;;;4997831;28;20021;-78
2023/03/28 05:16:29;;;;;;;2.38;0.32;;;4.60;66.10;;;;;;5002843;28;20036;-78
2023/03/28 05:18:55;;;;;;;0.68;0.30;;;4.60;66.10;;;;;;5002456;28;20037;-78
2023/03/28 05:21:21;;;;;;;1.35;0.50;;;4.50;66.30;;;;;;5000204;28;20045;-78
2023/03/28 05:23:47;;;;;;;1.65;0.50;;;4.30;66.60;;;;;;5000663;28;20493;-79
2023/03/28 05:26:12;;;;;;;1.10;0.47;;;3.90;66.60;;;;;;5001510;28;20124;-78
2023/03/28 05:28:38;;;;;;;1.05;0.30;;;3.80;67.10;;;;;;4994091;28;20029;-79
2023/03/28 05:31:06;;;;;;;0.43;0.20;;;3.70;67.30;;;;;;5001104;28;20435;-78
2023/03/28 05:33:33;;;;;;;1.65;0.32;;;3.50;68.80;;;;;;5003809;28;20578;-77
2023/03/28 05:35:59;;;;;;;1.05;0.20;;;3.60;68.80;;;;;;4994633;28;20026;-77
2023/03/28 05:38:25;;;;;;;1.23;0.45;;;3.90;68.50;;;;;;5002411;28;20450;-77
2023/03/28 05:40:52;;;;;;;1.90;0.70;;;4.00;67.90;;;;;;5003579;28;20041;-77
2023/03/28 05:43:17;;;;;;;3.40;0.98;;;4.00;68.00;;;;;;5004080;28;20048;-78
2023/03/28 05:45:45;;;;;;;33.53;11.77;;;4.00;68.80;;;;;;5006632;28;20052;-79
2023/03/28 05:48:10;;;;;;;8.60;3.03;;;3.90;71.40;;;;;;5009097;28;20128;-77
2023/03/28 05:50:36;;;;;;;2.88;1.10;;;3.80;69.30;;;;;;5004652;28;20587;-78
2023/03/28 05:53:02;;;;;;;1.77;0.70;;;3.90;68.90;;;;;;5000743;28;20124;-77
2023/03/28 05:55:27;;;;;;;1.83;0.60;;;4.10;69.00;;;;;;5002314;28;20029;-77
2023/03/28 05:57:53;;;;;;;1.20;0.43;;;3.90;70.30;;;;;;5004027;28;20061;-77
2023/03/28 06:00:19;;;;;;;1.40;0.55;;;3.70;69.90;;;;;;5002920;28;20032;-78
2023/03/28 06:02:45;;;;;;;1.75;0.60;;;3.50;70.50;;;;;;5002790;28;20044;-77
2023/03/28 06:05:12;;;;;;;1.95;0.50;;;3.30;71.20;;;;;;5020000;28;20034;-77
2023/03/28 06:07:38;;;;;;;0.55;0.40;;;3.30;71.20;;;;;;5005431;28;20030;-78
2023/03/28 06:10:05;;;;;;;2.50;0.52;;;3.20;71.60;;;;;;5002898;28;20072;-78
2023/03/28 06:12:31;;;;;;;2.05;0.57;;;3.10;71.80;;;;;;5003942;28;20030;-78
2023/03/28 06:14:57;;;;;;;3.25;0.50;;;3.00;72.20;;;;;;5002711;28;20056;-78
2023/03/28 06:17:23;;;;;;;1.23;0.45;;;3.00;72.10;;;;;;5003003;28;20538;-78
2023/03/28 06:19:49;;;;;;;1.80;0.47;;;3.10;71.50;;;;;;5003953;28;20029;-79
2023/03/28 06:22:15;;;;;;;0.55;0.20;;;3.20;71.50;;;;;;5004997;28;20026;-77
2023/03/28 06:24:41;;;;;;;1.92;0.60;;;3.00;72.40;;;;;;5003302;28;20038;-78
2023/03/28 06:27:07;;;;;;;1.08;0.40;;;3.10;72.60;;;;;;5002601;28;20107;-77
2023/03/28 06:29:32;;;;;;;0.98;0.32;;;3.10;72.70;;;;;;5003979;28;20120;-77
2023/03/28 06:31:58;;;;;;;1.05;0.40;;;3.20;72.10;;;;;;5002384;28;20044;-77
2023/03/28 06:34:24;;;;;;;1.13;0.30;;;3.30;72.20;;;;;;5001941;28;20359;-78
2023/03/28 06:36:49;;;;;;;1.75;0.50;;;3.40;71.30;;;;;;5003056;28;20042;-78
2023/03/28 06:39:15;;;;;;;1.83;0.73;;;3.40;71.50;;;;;;5002089;28;20065;-78
2023/03/28 06:41:41;;;;;;;0.95;0.40;;;3.40;72.20;;;;;;5003246;28;20033;-78
2023/03/28 06:44:07;;;;;;;1.90;0.52;;;3.30;71.60;;;;;;5002407;28;20847;-77
2023/03/28 06:46:32;;;;;;;1.88;0.50;;;3.50;72.30;;;;;;4998983;28;20046;-77
2023/03/28 06:48:58;;;;;;;1.50;0.40;;;3.60;71.80;;;;;;5001713;28;20029;-76
2023/03/28 06:51:24;;;;;;;1.80;0.60;;;3.80;71.60;;;;;;5002789;28;20075;-76
2023/03/28 06:53:50;;;;;;;0.85;0.32;;;3.80;72.00;;;;;;5000875;28;20112;-75
2023/03/28 06:56:16;;;;;;;1.10;0.25;;;3.90;72.10;;;;;;5002678;28;20184;-75
2023/03/28 06:58:41;;;;;;;0.20;0.20;;;4.20;71.10;;;;;;5001431;28;20123;-76
2023/03/28 07:01:07;;;;;;;1.67;0.43;;;4.50;72.90;;;;;;5001148;28;20037;-75
2023/03/28 07:03:33;;;;;;;1.70;0.52;;;4.60;71.50;;;;;;5002325;28;20026;-75
2023/03/28 07:06:04;;;;;;;3.15;0.43;;;4.60;70.70;;;;;;5001881;28;20041;-76
2023/03/28 07:08:30;;;;;;;2.10;0.50;;;4.90;70.70;;;;;;5001898;28;20034;-76
2023/03/28 07:10:56;;;;;;;3.58;0.82;;;5.20;70.10;;;;;;5001173;28;20530;-74
2023/03/28 07:13:21;;;;;;;1.83;0.43;;;5.60;68.70;;;;;;5002473;28;20092;-72
2023/03/28 07:15:57;;;;;;;1.50;0.30;;;7.20;66.20;;;;;;4997021;28;20103;-73
2023/03/28 07:18:23;;;;;;;1.77;0.47;;;8.30;64.00;;;;;;5001526;28;20870;-73
2023/03/28 07:20:48;;;;;;;3.97;0.50;;;7.10;65.30;;;;;;5002138;28;20048;-73
2023/03/28 07:23:14;;;;;;;1.00;0.55;;;6.40;66.00;;;;;;5002530;28;20022;-74
2023/03/28 07:25:40;;;;;;;1.73;0.45;;;6.10;66.40;;;;;;5000738;28;20034;-73
2023/03/28 07:28:06;;;;;;;1.05;0.70;;;5.90;66.30;;;;;;5001236;28;20435;-72
2023/03/28 07:30:32;;;;;;;2.78;0.50;;;5.80;66.20;;;;;;5002238;28;20060;-73
2023/03/28 07:32:57;;;;;;;1.27;0.50;;;5.80;66.00;;;;;;4999579;28;20030;-72
2023/03/28 07:35:23;;;;;;;0.43;0.20;;;5.90;65.50;;;;;;5000564;28;20553;-73
2023/03/28 07:37:49;;;;;;;3.08;0.70;;;5.90;65.70;;;;;;5001858;28;20021;-71
2023/03/28 07:40:15;;;;;;;2.92;0.90;;;5.90;65.80;;;;;;5001105;28;20391;-73
2023/03/28 07:42:41;;;;;;;0.90;0.60;;;6.10;66.70;;;;;;4999372;28;20030;-73
2023/03/28 07:45:07;;;;;;;0.38;0.30;;;6.40;67.70;;;;;;5001200;28;20036;-72
2023/03/28 07:47:33;;;;;;;1.23;0.43;;;7.30;64.40;;;;;;5001146;28;20670;-72
2023/03/28 07:49:59;;;;;;;0.57;0.30;;;6.80;64.80;;;;;;5000793;28;20022;-73
2023/03/28 07:52:24;;;;;;;2.10;0.30;;;6.50;64.20;;;;;;5002494;28;20072;-72
2023/03/28 07:54:50;;;;;;;1.17;0.38;;;6.40;64.50;;;;;;5000904;28;20517;-74
2023/03/28 07:57:16;;;;;;;0.85;0.40;;;6.40;64.60;;;;;;5000520;28;20025;-72
2023/03/28 07:59:41;;;;;;;1.85;0.38;;;6.30;66.00;;;;;;5001327;28;20036;-73
2023/03/28 08:02:10;;;;;;;1.52;0.50;;;6.40;64.30;;;;;;4996907;28;20049;-73
2023/03/28 08:04:36;;;;;;;0.73;0.30;;;6.50;64.10;;;;;;4997371;28;20096;-74
2023/03/28 08:07:02;;;;;;;1.08;0.20;;;6.50;63.60;;;;;;4998659;28;20443;-73
2023/03/28 08:09:28;;;;;;;1.08;0.40;;;6.60;63.50;;;;;;5004850;28;20649;-74
2023/03/28 08:11:53;;;;;;;2.67;0.65;;;6.60;63.90;;;;;;5003610;28;20072;-75
2023/03/28 08:14:19;;;;;;;1.65;0.30;;;7.20;72.90;;;;;;5003860;28;20049;-74
2023/03/28 08:16:45;;;;;;;1.38;0.55;;;7.60;62.50;;;;;;5000660;28;20025;-74
2023/03/28 08:19:12;;;;;;;2.17;0.38;;;7.10;62.80;;;;;;5001028;28;20018;-74
2023/03/28 08:21:37;;;;;;;1.90;0.57;;;7.00;63.40;;;;;;5000452;28;20444;-74
2023/03/28 08:24:04;;;;;;;0.50;0.20;;;7.00;63.80;;;;;;5000693;28;20088;-75
2023/03/28 08:26:30;;;;;;;1.98;0.50;;;7.00;63.60;;;;;;5002925;28;20046;-74
2023/03/28 08:28:59;;;;;;;3.08;1.35;;;7.10;63.00;;;;;;5004964;28;20108;-74
2023/03/28 08:31:27;;;;;;;2.63;0.73;;;7.20;63.60;;;;;;5003663;28;20042;-74
2023/03/28 08:33:54;;;;;;;4.78;1.55;;;7.20;62.50;;;;;;5001606;28;20084;-74
2023/03/28 08:36:21;;;;;;;3.30;0.63;;;7.30;62.90;;;;;;4995825;28;20033;-73
2023/03/28 08:38:53;;;;;;;2.53;1.30;;;7.50;64.00;;;;;;5003815;28;20064;-75
2023/03/28 08:41:39;;;;;;;7.75;1.23;;;7.60;63.30;;;;;;5002579;28;20103;-74
2023/03/28 08:44:17;;;;;;;1.17;0.40;;;7.60;63.50;;;;;;5003438;28;20022;-76
2023/03/28 08:46:45;;;;;;;0.70;0.40;;;7.70;63.90;;;;;;5003403;28;20034;-75
2023/03/28 08:49:15;;;;;;;1.27;0.50;;;7.70;62.30;;;;;;5002936;28;20109;-73
2023/03/28 08:51:56;;;;;;;0.47;0.30;;;7.70;62.80;;;;;;5003785;28;20520;-74
2023/03/28 08:54:25;;;;;;;0.38;0.28;;;7.90;62.70;;;;;;5000885;28;20049;-73
2023/03/28 08:56:56;;;;;;;1.08;0.40;;;7.90;63.60;;;;;;4997683;28;20077;-73
2023/03/28 08:59:34;;;;;;;0.38;0.22;;;7.90;64.60;;;;;;5003588;28;20060;-74
2023/03/28 09:01:59;;;;;;;0.68;0.35;;;8.00;63.00;;;;;;5003460;28;20083;-74
2023/03/28 09:04:33;;;;;;;2.25;0.70;;;7.90;62.50;;;;;;5002617;28;20473;-73
2023/03/28 09:07:14;;;;;;;1.35;0.45;;;7.90;63.30;;;;;;5004208;28;20038;-74
2023/03/28 09:10:02;;;;;;;0.85;0.28;;;8.00;62.50;;;;;;5000466;28;20057;-73
2023/03/28 09:12:58;;;;;;;1.42;0.65;;;8.10;62.10;;;;;;5004346;28;20091;-73
2023/03/28 09:15:39;;;;;;;4.07;0.73;;;8.70;62.20;;;;;;5002988;28;20175;-74
2023/03/28 09:18:25;;;;;;;1.02;0.40;;;12.90;59.90;;;;;;5002850;28;20037;-74
2023/03/28 09:20:57;;;;;;;1.05;0.47;;;13.90;56.40;;;;;;5005513;28;20030;-73
2023/03/28 09:23:41;;;;;;;3.30;0.75;;;15.60;55.40;;;;;;5007332;28;20094;-74
2023/03/28 09:26:17;;;;;;;1.88;0.40;;;15.90;55.60;;;;;;5003865;28;20038;-74
2023/03/28 09:28:49;;;;;;;0.95;0.50;;;14.60;55.00;;;;;;5008037;28;20041;-73
2023/03/28 09:31:17;;;;;;;1.83;0.40;;;14.70;55.50;;;;;;5006979;28;20057;-73
2023/03/28 09:33:47;;;;;;;2.15;0.60;;;15.10;54.80;;;;;;5006701;28;20034;-73
2023/03/28 09:36:17;;;;;;;1.17;0.35;;;15.70;55.00;;;;;;5006789;28;20032;-74
2023/03/28 09:38:55;;;;;;;4.25;0.60;;;15.90;55.20;;;;;;5003636;28;20137;-73
2023/03/28 09:41:28;;;;;;;1.90;0.60;;;15.80;54.10;;;;;;5007372;28;20072;-74
2023/03/28 09:43:58;;;;;;;3.20;0.70;;;17.30;56.70;;;;;;5006095;28;20125;-74
2023/03/28 09:46:45;;;;;;;2.20;0.50;;;16.30;54.30;;;;;;5004445;28;20045;-74
2023/03/28 09:49:21;;;;;;;1.65;0.45;;;15.00;55.40;;;;;;5006152;28;20149;-73
2023/03/28 09:51:50;;;;;;;2.38;0.70;;;14.90;55.70;;;;;;5005573;28;20034;-73
2023/03/28 09:54:20;;;;;;;0.50;0.30;;;17.10;56.90;;;;;;5005824;28;20033;-73
2023/03/28 09:56:46;;;;;;;1.92;0.60;;;15.50;55.00;;;;;;5004221;28;20025;-74
2023/03/28 09:59:24;;;;;;;2.92;0.63;;;14.50;55.20;;;;;;5006273;28;20112;-74
2023/03/28 10:01:52;;;;;;;2.40;0.52;;;12.40;56.30;;;;;;5005939;28;20385;-75
2023/03/28 10:04:20;;;;;;;1.08;0.45;;;11.10;57.40;;;;;;5004862;28;20041;-74
2023/03/28 10:06:47;;;;;;;5.47;1.00;;;10.60;59.50;;;;;;5006782;28;20041;-74
2023/03/28 10:09:20;;;;;;;1.52;0.85;;;10.50;60.20;;;;;;5004557;28;20540;-74
2023/03/28 10:11:54;;;;;;;1.00;0.30;;;10.10;57.80;;;;;;5004766;28;20196;-74
2023/03/28 10:14:33;;;;;;;1.77;0.60;;;10.40;61.30;;;;;;5005411;28;20022;-74
2023/03/28 10:17:25;;;;;;;1.52;0.43;;;10.50;58.90;;;;;;5006346;28;20022;-74
2023/03/28 10:19:56;;;;;;;6.55;0.70;;;10.40;58.20;;;;;;4996802;28;20096;-74
2023/03/28 10:22:26;;;;;;;2.90;0.68;;;10.60;59.40;;;;;;5007385;28;20056;-74
2023/03/28 10:24:52;;;;;;;2.35;0.68;;;10.60;59.20;;;;;;5004827;28;20033;-74
2023/03/28 10:27:28;;;;;;;2.42;0.65;;;10.60;58.20;;;;;;4999818;28;20038;-74
2023/03/28 10:29:55;;;;;;;0.98;0.50;;;10.80;57.20;;;;;;5003142;28;20037;-74
2023/03/28 10:32:28;;;;;;;1.08;0.35;;;11.00;58.30;;;;;;5004227;28;20144;-74
2023/03/28 10:35:05;;;;;;;1.73;0.50;;;10.90;55.70;;;;;;5005494;28;20022;-74
2023/03/28 10:37:32;;;;;;;0.85;0.40;;;10.90;55.10;;;;;;5004341;28;20177;-74
2023/03/28 10:40:05;;;;;;;2.38;1.13;;;11.10;57.00;;;;;;5003302;28;20034;-74
2023/03/28 10:42:44;;;;;;;1.33;0.70;;;11.10;57.10;;;;;;5005461;28;20543;-74
2023/03/28 10:45:33;;;;;;;1.27;0.70;;;11.50;57.90;;;;;;5003481;28;20030;-73
2023/03/28 10:48:03;;;;;;;1.05;0.47;;;11.60;58.50;;;;;;4994710;28;20046;-73
2023/03/28 10:50:40;;;;;;;1.52;0.40;;;11.70;60.40;;;;;;5004807;28;20041;-74
2023/03/28 10:53:36;;;;;;;1.67;0.50;;;11.60;56.30;;;;;;5005034;28;20030;-74
2023/03/28 10:56:32;;;;;;;1.75;0.70;;;11.70;57.80;;;;;;4992803;28;20038;-74
2023/03/28 10:59:06;;;;;;;1.88;0.77;;;11.60;56.10;;;;;;5005219;28;20538;-74
2023/03/28 11:01:41;;;;;;;2.58;0.45;;;11.60;56.20;;;;;;5004512;28;20512;-74
2023/03/28 11:04:10;;;;;;;;;;;11.90;57.40;;;;;;4997717;28;20040;-74
2023/03/28 11:07:03;;;;;;;1.25;0.57;;;12.10;56.20;;;;;;5003255;28;20055;-74
2023/03/28 11:09:46;;;;;;;1.95;0.75;;;12.10;55.30;;;;;;5005027;28;20096;-73
2023/03/28 11:12:18;;;;;;;0.65;0.30;;;12.30;56.30;;;;;;5005055;28;20034;-74
2023/03/28 11:14:59;;;;;;;0.70;0.30;;;12.20;56.00;;;;;;5004338;28;20057;-74
2023/03/28 11:17:44;;;;;;;0.68;0.38;;;12.10;55.10;;;;;;5004076;28;20455;-74
2023/03/28 11:20:43;;;;;;;0.95;0.47;;;12.20;55.00;;;;;;5000627;28;20049;-73
2023/03/28 11:23:30;;;;;;;1.25;0.73;;;12.10;53.50;;;;;;5004271;28;20399;-73
2023/03/28 11:26:11;;;;;;;1.40;0.63;;;12.10;54.30;;;;;;5005067;28;20064;-73
2023/03/28 11:28:48;;;;;;;1.30;0.57;;;12.20;56.30;;;;;;5004342;28;20022;-74
2023/03/28 11:31:20;;;;;;;1.33;0.55;;;12.80;54.60;;;;;;5003573;28;20022;-74
2023/03/28 11:33:54;;;;;;;1.90;0.63;;;12.70;53.90;;;;;;4999876;28;20029;-74
2023/03/28 11:36:39;;;;;;;0.80;0.40;;;12.70;54.90;;;;;;5005549;28;20026;-74
2023/03/28 11:39:32;;;;;;;1.83;0.68;;;12.50;52.00;;;;;;5005848;28;20116;-74
2023/03/28 11:42:03;;;;;;;6.07;1.00;;;12.30;52.10;;;;;;5004359;28;20644;-74
2023/03/28 11:44:47;;;;;;;1.27;0.40;;;12.50;52.90;;;;;;5005090;28;20104;-74
2023/03/28 11:47:24;;;;;;;1.15;0.35;;;12.70;51.80;;;;;;5001286;28;20601;-73
2023/03/28 11:49:52;;;;;;;0.77;0.35;;;12.60;51.30;;;;;;5004500;28;20028;-73
2023/03/28 11:52:27;;;;;;;1.92;0.30;;;12.50;52.30;;;;;;5000789;28;20057;-74
2023/03/28 11:55:14;;;;;;;1.27;0.40;;;12.40;52.90;;;;;;5000773;28;20104;-73
2023/03/28 11:57:45;;;;;;;2.80;0.98;;;12.80;53.40;;;;;;4999612;28;20038;-73
2023/03/28 12:00:29;;;;;;;0.82;0.40;;;13.20;52.70;;;;;;5001484;28;20075;-74
2023/03/28 12:03:17;;;;;;;1.58;0.65;;;12.90;50.70;;;;;;5001483;28;20361;-74
2023/03/28 12:05:49;;;;;;;11.88;1.02;;;13.20;51.10;;;;;;5000713;28;20038;-74
2023/03/28 12:08:27;;;;;;;0.77;0.30;;;13.60;53.40;;;;;;5001524;28;20103;-74
2023/03/28 12:10:58;;;;;;;0.95;0.50;;;13.40;51.70;;;;;;5002023;28;20053;-73
2023/03/28 12:13:57;;;;;;;0.68;0.38;;;13.20;51.20;;;;;;4997320;28;20041;-74
2023/03/28 12:16:29;;;;;;;1.98;0.70;;;13.20;50.90;;;;;;4998464;28;20082;-74
2023/03/28 12:19:00;;;;;;;0.40;0.25;;;13.40;53.00;;;;;;5000518;28;20112;-74
2023/03/28 12:21:42;;;;;;;1.40;0.95;;;13.10;49.60;;;;;;4996643;28;20064;-73
2023/03/28 12:24:22;;;;;;;1.13;0.40;;;13.30;52.80;;;;;;5001224;28;20045;-73
2023/03/28 12:27:06;;;;;;;1.08;0.30;;;13.40;51.20;;;;;;5000916;28;20042;-74
2023/03/28 12:29:59;;;;;;;1.10;0.43;;;13.20;48.40;;;;;;4999078;28;20029;-74
2023/03/28 12:32:47;;;;;;;2.47;0.85;;;13.10;50.00;;;;;;4993409;28;20041;-73
2023/03/28 12:35:25;;;;;;;5.53;1.00;;;13.40;50.30;;;;;;4999114;28;20029;-74
2023/03/28 12:38:17;;;;;;;1.17;0.43;;;13.50;49.50;;;;;;5000612;28;20046;-73
2023/03/28 12:40:53;;;;;;;0.40;0.30;;;13.40;48.70;;;;;;5000872;28;20030;-74
2023/03/28 12:43:25;;;;;;;1.27;0.35;;;13.50;50.00;;;;;;4999837;28;20079;-74
2023/03/28 12:45:56;;;;;;;3.30;0.40;;;13.60;50.00;;;;;;5000864;28;20408;-74
2023/03/28 12:48:30;;;;;;;1.52;0.30;;;13.40;50.20;;;;;;5001663;28;20515;-73
2023/03/28 12:51:06;;;;;;;2.28;0.80;;;13.40;50.40;;;;;;5001768;28;20034;-73
2023/03/28 12:53:32;;;;;;;2.65;0.40;;;13.30;50.00;;;;;;5000044;28;20160;-74
2023/03/28 12:56:00;;;;;;;0.85;0.50;;;13.40;49.90;;;;;;5004161;28;20025;-74
2023/03/28 12:58:33;;;;;;;1.55;0.40;;;13.50;51.00;;;;;;5005671;28;20082;-73
2023/03/28 13:01:08;;;;;;;1.20;0.43;;;13.80;50.80;;;;;;5005600;28;20133;-73
2023/03/28 13:04:09;;;;;;;1.10;0.50;;;13.90;50.30;;;;;;5001540;28;20033;-74
2023/03/28 13:06:51;;;;;;;1.33;0.50;;;14.00;52.00;;;;;;4996367;28;20576;-74
2023/03/28 13:09:48;;;;;;;1.23;0.45;;;13.90;51.40;;;;;;5005176;28;20046;-73
2023/03/28 13:12:38;;;;;;;0.82;0.38;;;13.70;50.30;;;;;;4992817;28;20061;-73
2023/03/28 13:15:13;;;;;;;1.08;0.40;;;14.00;51.80;;;;;;5003856;28;20037;-74
2023/03/28 13:17:47;;;;;;;1.17;0.50;;;14.00;50.70;;;;;;5003383;28;20084;-74
2023/03/28 13:20:16;;;;;;;2.67;1.10;;;13.80;49.30;;;;;;5003775;28;20526;-74